sensor_id;sensor_type;location;lat;lon;timestamp;pressure;altitude;pressure_sealevel;temperature
73937;BMP180;59249;59.736;30.568;2023-02-26T00:01:50;99439.00;;;-2.80
73937;BMP180;59249;59.736;30.568;2023-02-26T00:04:20;99447.00;;;-3.00
73937;BMP180;59249;59.736;30.568;2023-02-26T00:06:49;99439.00;;;-3.00
73937;BMP180;59249;59.736;30.568;2023-02-26T00:09:23;99434.00;;;-2.70
73937;BMP180;59249;59.736;30.568;2023-02-26T00:11:54;99439.00;;;-2.60
73937;BMP180;59249;59.736;30.568;2023-02-26T00:14:23;99451.00;;;-2.80
73937;BMP180;59249;59.736;30.568;2023-02-26T00:17:04;99445.00;;;-2.70
73937;BMP180;59249;59.736;30.568;2023-02-26T00:19:43;99436.00;;;-2.70
73937;BMP180;59249;59.736;30.568;2023-02-26T00:22:13;99443.00;;;-2.80
73937;BMP180;59249;59.736;30.568;2023-02-26T00:24:42;99447.00;;;-2.70
73937;BMP180;59249;59.736;30.568;2023-02-26T00:27:12;99440.00;;;-2.90
73937;BMP180;59249;59.736;30.568;2023-02-26T00:29:41;99432.00;;;-2.70
73937;BMP180;59249;59.736;30.568;2023-02-26T00:32:11;99433.00;;;-2.80
73937;BMP180;59249;59.736;30.568;2023-02-26T00:34:41;99449.00;;;-2.80
73937;BMP180;59249;59.736;30.568;2023-02-26T00:37:19;99450.00;;;-2.90
73937;BMP180;59249;59.736;30.568;2023-02-26T00:40:02;99445.00;;;-2.80
73937;BMP180;59249;59.736;30.568;2023-02-26T00:42:44;99440.00;;;-2.70
73937;BMP180;59249;59.736;30.568;2023-02-26T00:45:14;99424.00;;;-3.00
73937;BMP180;59249;59.736;30.568;2023-02-26T00:47:48;99430.00;;;-2.80
73937;BMP180;59249;59.736;30.568;2023-02-26T00:50:24;99432.00;;;-2.80
73937;BMP180;59249;59.736;30.568;2023-02-26T00:53:02;99438.00;;;-3.00
73937;BMP180;59249;59.736;30.568;2023-02-26T00:55:34;99450.00;;;-3.10
73937;BMP180;59249;59.736;30.568;2023-02-26T00:58:04;99445.00;;;-3.00
73937;BMP180;59249;59.736;30.568;2023-02-26T01:00:33;99439.00;;;-2.80
73937;BMP180;59249;59.736;30.568;2023-02-26T01:03:03;99462.00;;;-3.00
73937;BMP180;59249;59.736;30.568;2023-02-26T01:05:32;99440.00;;;-2.70
73937;BMP180;59249;59.736;30.568;2023-02-26T01:08:04;99449.00;;;-3.00
73937;BMP180;59249;59.736;30.568;2023-02-26T01:10:40;99450.00;;;-2.80
73937;BMP180;59249;59.736;30.568;2023-02-26T01:13:11;99432.00;;;-2.70
73937;BMP180;59249;59.736;30.568;2023-02-26T01:15:46;99433.00;;;-3.00
73937;BMP180;59249;59.736;30.568;2023-02-26T01:18:21;99438.00;;;-2.90
73937;BMP180;59249;59.736;30.568;2023-02-26T01:20:57;99428.00;;;-3.00
73937;BMP180;59249;59.736;30.568;2023-02-26T01:23:34;99428.00;;;-3.00
73937;BMP180;59249;59.736;30.568;2023-02-26T01:26:12;99438.00;;;-3.00
73937;BMP180;59249;59.736;30.568;2023-02-26T01:28:47;99438.00;;;-2.80
73937;BMP180;59249;59.736;30.568;2023-02-26T01:31:34;99444.00;;;-2.90
73937;BMP180;59249;59.736;30.568;2023-02-26T01:34:13;99450.00;;;-3.10
73937;BMP180;59249;59.736;30.568;2023-02-26T01:36:50;99443.00;;;-3.10
73937;BMP180;59249;59.736;30.568;2023-02-26T01:39:27;99441.00;;;-3.20
73937;BMP180;59249;59.736;30.568;2023-02-26T01:42:08;99443.00;;;-2.80
73937;BMP180;59249;59.736;30.568;2023-02-26T01:44:54;99435.00;;;-3.10
73937;BMP180;59249;59.736;30.568;2023-02-26T01:47:37;99431.00;;;-3.00
73937;BMP180;59249;59.736;30.568;2023-02-26T01:50:13;99432.00;;;-3.00
73937;BMP180;59249;59.736;30.568;2023-02-26T01:53:15;99431.00;;;-3.00
73937;BMP180;59249;59.736;30.568;2023-02-26T01:55:49;99428.00;;;-2.90
73937;BMP180;59249;59.736;30.568;2023-02-26T01:58:23;99436.00;;;-3.00
73937;BMP180;59249;59.736;30.568;2023-02-26T02:00:56;99418.00;;;-3.10
73937;BMP180;59249;59.736;30.568;2023-02-26T02:03:27;99435.00;;;-3.10
73937;BMP180;59249;59.736;30.568;2023-02-26T02:06:01;99424.00;;;-2.90
73937;BMP180;59249;59.736;30.568;2023-02-26T02:08:33;99433.00;;;-3.10
73937;BMP180;59249;59.736;30.568;2023-02-26T02:11:06;99432.00;;;-3.10
73937;BMP180;59249;59.736;30.568;2023-02-26T02:13:44;99448.00;;;-2.90
73937;BMP180;59249;59.736;30.568;2023-02-26T02:16:32;99439.00;;;-3.00
73937;BMP180;59249;59.736;30.568;2023-02-26T02:19:23;99446.00;;;-3.00
73937;BMP180;59249;59.736;30.568;2023-02-26T02:22:26;99438.00;;;-3.20
73937;BMP180;59249;59.736;30.568;2023-02-26T02:25:21;99448.00;;;-3.20
73937;BMP180;59249;59.736;30.568;2023-02-26T02:28:20;99452.00;;;-3.20
73937;BMP180;59249;59.736;30.568;2023-02-26T02:31:06;99448.00;;;-3.20
73937;BMP180;59249;59.736;30.568;2023-02-26T02:33:43;99462.00;;;-3.20
73937;BMP180;59249;59.736;30.568;2023-02-26T02:36:21;99442.00;;;-3.30
73937;BMP180;59249;59.736;30.568;2023-02-26T02:39:07;99456.00;;;-3.20
73937;BMP180;59249;59.736;30.568;2023-02-26T02:41:44;99455.00;;;-3.30
73937;BMP180;59249;59.736;30.568;2023-02-26T02:44:18;99462.00;;;-3.20
73937;BMP180;59249;59.736;30.568;2023-02-26T02:46:53;99449.00;;;-3.20
73937;BMP180;59249;59.736;30.568;2023-02-26T02:49:34;99448.00;;;-3.20
73937;BMP180;59249;59.736;30.568;2023-02-26T02:52:09;99453.00;;;-3.10
73937;BMP180;59249;59.736;30.568;2023-02-26T02:54:45;99426.00;;;-3.10
73937;BMP180;59249;59.736;30.568;2023-02-26T02:57:20;99418.00;;;-3.10
73937;BMP180;59249;59.736;30.568;2023-02-26T02:59:54;99423.00;;;-2.90
73937;BMP180;59249;59.736;30.568;2023-02-26T03:02:35;99435.00;;;-2.90
73937;BMP180;59249;59.736;30.568;2023-02-26T03:05:07;99442.00;;;-3.00
73937;BMP180;59249;59.736;30.568;2023-02-26T03:07:42;99454.00;;;-3.00
73937;BMP180;59249;59.736;30.568;2023-02-26T03:10:16;99428.00;;;-3.00
73937;BMP180;59249;59.736;30.568;2023-02-26T03:12:45;99437.00;;;-3.00
73937;BMP180;59249;59.736;30.568;2023-02-26T03:15:17;99435.00;;;-3.30
73937;BMP180;59249;59.736;30.568;2023-02-26T03:18:05;99430.00;;;-3.00
73937;BMP180;59249;59.736;30.568;2023-02-26T03:20:54;99446.00;;;-3.10
73937;BMP180;59249;59.736;30.568;2023-02-26T03:23:32;99450.00;;;-3.10
73937;BMP180;59249;59.736;30.568;2023-02-26T03:26:09;99444.00;;;-3.00
73937;BMP180;59249;59.736;30.568;2023-02-26T03:28:45;99445.00;;;-3.30
73937;BMP180;59249;59.736;30.568;2023-02-26T03:31:23;99440.00;;;-3.30
73937;BMP180;59249;59.736;30.568;2023-02-26T03:34:00;99440.00;;;-3.40
73937;BMP180;59249;59.736;30.568;2023-02-26T03:36:37;99448.00;;;-3.20
73937;BMP180;59249;59.736;30.568;2023-02-26T03:39:33;99444.00;;;-3.30
73937;BMP180;59249;59.736;30.568;2023-02-26T03:42:08;99459.00;;;-3.10
73937;BMP180;59249;59.736;30.568;2023-02-26T03:44:56;99440.00;;;-3.20
73937;BMP180;59249;59.736;30.568;2023-02-26T03:47:31;99440.00;;;-3.50
73937;BMP180;59249;59.736;30.568;2023-02-26T03:50:07;99459.00;;;-3.50
73937;BMP180;59249;59.736;30.568;2023-02-26T03:52:52;99422.00;;;-3.40
73937;BMP180;59249;59.736;30.568;2023-02-26T03:55:33;99454.00;;;-3.40
73937;BMP180;59249;59.736;30.568;2023-02-26T03:58:24;99445.00;;;-3.20
73937;BMP180;59249;59.736;30.568;2023-02-26T04:01:16;99440.00;;;-3.40
73937;BMP180;59249;59.736;30.568;2023-02-26T04:03:52;99460.00;;;-3.20
73937;BMP180;59249;59.736;30.568;2023-02-26T04:06:28;99444.00;;;-3.30
73937;BMP180;59249;59.736;30.568;2023-02-26T04:08:57;99441.00;;;-3.40
73937;BMP180;59249;59.736;30.568;2023-02-26T04:11:30;99436.00;;;-3.40
73937;BMP180;59249;59.736;30.568;2023-02-26T04:13:59;99452.00;;;-3.30
73937;BMP180;59249;59.736;30.568;2023-02-26T04:16:31;99443.00;;;-3.40
73937;BMP180;59249;59.736;30.568;2023-02-26T04:19:00;99439.00;;;-3.40
73937;BMP180;59249;59.736;30.568;2023-02-26T04:21:30;99454.00;;;-3.30
73937;BMP180;59249;59.736;30.568;2023-02-26T04:23:59;99431.00;;;-3.40
73937;BMP180;59249;59.736;30.568;2023-02-26T04:26:28;99435.00;;;-3.30
73937;BMP180;59249;59.736;30.568;2023-02-26T04:28:57;99426.00;;;-3.20
73937;BMP180;59249;59.736;30.568;2023-02-26T04:31:26;99446.00;;;-3.20
73937;BMP180;59249;59.736;30.568;2023-02-26T04:33:55;99448.00;;;-3.40
73937;BMP180;59249;59.736;30.568;2023-02-26T04:36:24;99452.00;;;-3.30
73937;BMP180;59249;59.736;30.568;2023-02-26T04:38:55;99451.00;;;-3.20
73937;BMP180;59249;59.736;30.568;2023-02-26T04:41:24;99423.00;;;-3.10
73937;BMP180;59249;59.736;30.568;2023-02-26T04:43:54;99429.00;;;-3.30
73937;BMP180;59249;59.736;30.568;2023-02-26T04:46:28;99418.00;;;-3.20
73937;BMP180;59249;59.736;30.568;2023-02-26T04:48:57;99434.00;;;-3.10
73937;BMP180;59249;59.736;30.568;2023-02-26T04:51:29;99445.00;;;-3.60
73937;BMP180;59249;59.736;30.568;2023-02-26T04:53:59;99465.00;;;-3.20
73937;BMP180;59249;59.736;30.568;2023-02-26T04:56:28;99437.00;;;-3.50
73937;BMP180;59249;59.736;30.568;2023-02-26T04:59:00;99451.00;;;-3.40
73937;BMP180;59249;59.736;30.568;2023-02-26T05:01:30;99445.00;;;-3.40
73937;BMP180;59249;59.736;30.568;2023-02-26T05:03:58;99430.00;;;-3.40
73937;BMP180;59249;59.736;30.568;2023-02-26T05:06:28;99458.00;;;-3.60
73937;BMP180;59249;59.736;30.568;2023-02-26T05:08:59;99448.00;;;-3.40
73937;BMP180;59249;59.736;30.568;2023-02-26T05:11:27;99455.00;;;-3.20
73937;BMP180;59249;59.736;30.568;2023-02-26T05:13:56;99436.00;;;-3.50
73937;BMP180;59249;59.736;30.568;2023-02-26T05:16:25;99447.00;;;-3.20
73937;BMP180;59249;59.736;30.568;2023-02-26T05:18:56;99437.00;;;-3.20
73937;BMP180;59249;59.736;30.568;2023-02-26T05:21:25;99448.00;;;-3.40
73937;BMP180;59249;59.736;30.568;2023-02-26T05:23:54;99438.00;;;-3.30
73937;BMP180;59249;59.736;30.568;2023-02-26T05:26:24;99439.00;;;-3.30
73937;BMP180;59249;59.736;30.568;2023-02-26T05:28:53;99455.00;;;-3.40
73937;BMP180;59249;59.736;30.568;2023-02-26T05:31:22;99448.00;;;-3.20
73937;BMP180;59249;59.736;30.568;2023-02-26T05:33:52;99439.00;;;-3.10
73937;BMP180;59249;59.736;30.568;2023-02-26T05:36:21;99468.00;;;-3.20
73937;BMP180;59249;59.736;30.568;2023-02-26T05:38:50;99439.00;;;-3.40
73937;BMP180;59249;59.736;30.568;2023-02-26T05:41:20;99457.00;;;-3.50
73937;BMP180;59249;59.736;30.568;2023-02-26T05:43:50;99447.00;;;-3.20
73937;BMP180;59249;59.736;30.568;2023-02-26T05:46:18;99459.00;;;-3.20
73937;BMP180;59249;59.736;30.568;2023-02-26T05:48:47;99468.00;;;-3.30
73937;BMP180;59249;59.736;30.568;2023-02-26T05:51:16;99470.00;;;-3.20
73937;BMP180;59249;59.736;30.568;2023-02-26T05:53:45;99471.00;;;-3.20
73937;BMP180;59249;59.736;30.568;2023-02-26T05:56:13;99470.00;;;-3.20
73937;BMP180;59249;59.736;30.568;2023-02-26T05:58:45;99472.00;;;-3.30
73937;BMP180;59249;59.736;30.568;2023-02-26T06:01:15;99478.00;;;-3.20
73937;BMP180;59249;59.736;30.568;2023-02-26T06:03:44;99454.00;;;-3.10
73937;BMP180;59249;59.736;30.568;2023-02-26T06:06:13;99470.00;;;-3.20
73937;BMP180;59249;59.736;30.568;2023-02-26T06:08:44;99468.00;;;-3.40
73937;BMP180;59249;59.736;30.568;2023-02-26T06:11:13;99452.00;;;-3.30
73937;BMP180;59249;59.736;30.568;2023-02-26T06:13:42;99473.00;;;-3.10
73937;BMP180;59249;59.736;30.568;2023-02-26T06:16:10;99476.00;;;-3.40
73937;BMP180;59249;59.736;30.568;2023-02-26T06:18:41;99472.00;;;-3.60
73937;BMP180;59249;59.736;30.568;2023-02-26T06:21:09;99457.00;;;-3.10
73937;BMP180;59249;59.736;30.568;2023-02-26T06:23:38;99473.00;;;-3.30
73937;BMP180;59249;59.736;30.568;2023-02-26T06:26:07;99483.00;;;-3.20
73937;BMP180;59249;59.736;30.568;2023-02-26T06:28:36;99470.00;;;-3.20
73937;BMP180;59249;59.736;30.568;2023-02-26T06:31:07;99493.00;;;-3.30
73937;BMP180;59249;59.736;30.568;2023-02-26T06:33:36;99469.00;;;-3.30
73937;BMP180;59249;59.736;30.568;2023-02-26T06:36:07;99467.00;;;-3.00
73937;BMP180;59249;59.736;30.568;2023-02-26T06:38:35;99470.00;;;-3.30
73937;BMP180;59249;59.736;30.568;2023-02-26T06:41:04;99480.00;;;-3.60
73937;BMP180;59249;59.736;30.568;2023-02-26T06:43:33;99494.00;;;-3.30
73937;BMP180;59249;59.736;30.568;2023-02-26T06:46:02;99483.00;;;-3.20
73937;BMP180;59249;59.736;30.568;2023-02-26T06:48:31;99487.00;;;-3.30
73937;BMP180;59249;59.736;30.568;2023-02-26T06:51:00;99476.00;;;-3.50
73937;BMP180;59249;59.736;30.568;2023-02-26T06:53:30;99491.00;;;-3.20
73937;BMP180;59249;59.736;30.568;2023-02-26T06:55:58;99481.00;;;-3.20
73937;BMP180;59249;59.736;30.568;2023-02-26T06:58:27;99478.00;;;-3.20
73937;BMP180;59249;59.736;30.568;2023-02-26T07:00:56;99501.00;;;-3.20
73937;BMP180;59249;59.736;30.568;2023-02-26T07:03:24;99478.00;;;-3.30
73937;BMP180;59249;59.736;30.568;2023-02-26T07:05:53;99473.00;;;-3.30
73937;BMP180;59249;59.736;30.568;2023-02-26T07:08:23;99482.00;;;-3.40
73937;BMP180;59249;59.736;30.568;2023-02-26T07:10:53;99469.00;;;-3.40
73937;BMP180;59249;59.736;30.568;2023-02-26T07:13:22;99473.00;;;-3.10
73937;BMP180;59249;59.736;30.568;2023-02-26T07:15:51;99481.00;;;-3.10
73937;BMP180;59249;59.736;30.568;2023-02-26T07:18:20;99506.00;;;-3.40
73937;BMP180;59249;59.736;30.568;2023-02-26T07:20:49;99533.00;;;-3.50
73937;BMP180;59249;59.736;30.568;2023-02-26T07:23:17;99498.00;;;-3.20
73937;BMP180;59249;59.736;30.568;2023-02-26T07:25:48;99514.00;;;-3.30
73937;BMP180;59249;59.736;30.568;2023-02-26T07:28:18;99507.00;;;-3.30
73937;BMP180;59249;59.736;30.568;2023-02-26T07:30:47;99492.00;;;-3.30
73937;BMP180;59249;59.736;30.568;2023-02-26T07:33:16;99483.00;;;-3.00
73937;BMP180;59249;59.736;30.568;2023-02-26T07:35:45;99495.00;;;-2.90
73937;BMP180;59249;59.736;30.568;2023-02-26T07:38:14;99501.00;;;-3.20
73937;BMP180;59249;59.736;30.568;2023-02-26T07:40:45;99506.00;;;-3.40
73937;BMP180;59249;59.736;30.568;2023-02-26T07:43:14;99549.00;;;-3.00
73937;BMP180;59249;59.736;30.568;2023-02-26T07:45:44;99491.00;;;-3.10
73937;BMP180;59249;59.736;30.568;2023-02-26T07:48:13;99493.00;;;-3.30
73937;BMP180;59249;59.736;30.568;2023-02-26T07:50:44;99500.00;;;-3.00
73937;BMP180;59249;59.736;30.568;2023-02-26T07:53:13;99502.00;;;-3.00
73937;BMP180;59249;59.736;30.568;2023-02-26T07:55:42;99513.00;;;-3.20
73937;BMP180;59249;59.736;30.568;2023-02-26T07:58:11;99505.00;;;-3.20
73937;BMP180;59249;59.736;30.568;2023-02-26T08:00:40;99509.00;;;-3.20
73937;BMP180;59249;59.736;30.568;2023-02-26T08:03:10;99498.00;;;-2.90
73937;BMP180;59249;59.736;30.568;2023-02-26T08:05:39;99507.00;;;-3.00
73937;BMP180;59249;59.736;30.568;2023-02-26T08:08:08;99505.00;;;-3.30
73937;BMP180;59249;59.736;30.568;2023-02-26T08:10:37;99507.00;;;-3.00
73937;BMP180;59249;59.736;30.568;2023-02-26T08:13:08;99480.00;;;-2.90
73937;BMP180;59249;59.736;30.568;2023-02-26T08:15:37;99509.00;;;-3.10
73937;BMP180;59249;59.736;30.568;2023-02-26T08:18:07;99524.00;;;-3.30
73937;BMP180;59249;59.736;30.568;2023-02-26T08:20:38;99506.00;;;-2.90
73937;BMP180;59249;59.736;30.568;2023-02-26T08:23:06;99512.00;;;-3.20
73937;BMP180;59249;59.736;30.568;2023-02-26T08:25:35;99521.00;;;-3.10
73937;BMP180;59249;59.736;30.568;2023-02-26T08:28:04;99523.00;;;-3.20
73937;BMP180;59249;59.736;30.568;2023-02-26T08:30:33;99519.00;;;-3.10
73937;BMP180;59249;59.736;30.568;2023-02-26T08:33:02;99526.00;;;-3.10
73937;BMP180;59249;59.736;30.568;2023-02-26T08:35:31;99528.00;;;-3.00
73937;BMP180;59249;59.736;30.568;2023-02-26T08:38:01;99531.00;;;-3.20
73937;BMP180;59249;59.736;30.568;2023-02-26T08:40:30;99535.00;;;-3.10
73937;BMP180;59249;59.736;30.568;2023-02-26T08:42:58;99529.00;;;-3.00
73937;BMP180;59249;59.736;30.568;2023-02-26T08:45:27;99535.00;;;-3.00
73937;BMP180;59249;59.736;30.568;2023-02-26T08:47:56;99536.00;;;-3.00
73937;BMP180;59249;59.736;30.568;2023-02-26T08:50:25;99538.00;;;-3.10
73937;BMP180;59249;59.736;30.568;2023-02-26T08:52:54;99546.00;;;-3.20
73937;BMP180;59249;59.736;30.568;2023-02-26T08:55:24;99516.00;;;-3.00
73937;BMP180;59249;59.736;30.568;2023-02-26T08:57:53;99536.00;;;-3.00
73937;BMP180;59249;59.736;30.568;2023-02-26T09:00:22;99562.00;;;-3.10
73937;BMP180;59249;59.736;30.568;2023-02-26T09:02:51;99542.00;;;-3.10
73937;BMP180;59249;59.736;30.568;2023-02-26T09:05:20;99561.00;;;-3.20
73937;BMP180;59249;59.736;30.568;2023-02-26T09:07:49;99573.00;;;-3.00
73937;BMP180;59249;59.736;30.568;2023-02-26T09:10:17;99540.00;;;-3.00
73937;BMP180;59249;59.736;30.568;2023-02-26T09:12:48;99543.00;;;-3.00
73937;BMP180;59249;59.736;30.568;2023-02-26T09:15:17;99566.00;;;-3.10
73937;BMP180;59249;59.736;30.568;2023-02-26T09:17:48;99571.00;;;-3.20
73937;BMP180;59249;59.736;30.568;2023-02-26T09:20:17;99578.00;;;-3.10
73937;BMP180;59249;59.736;30.568;2023-02-26T09:22:46;99553.00;;;-3.10
73937;BMP180;59249;59.736;30.568;2023-02-26T09:25:15;99567.00;;;-3.10
73937;BMP180;59249;59.736;30.568;2023-02-26T09:27:44;99564.00;;;-3.00
73937;BMP180;59249;59.736;30.568;2023-02-26T09:30:15;99599.00;;;-3.20
73937;BMP180;59249;59.736;30.568;2023-02-26T09:32:44;99588.00;;;-3.10
73937;BMP180;59249;59.736;30.568;2023-02-26T09:35:13;99556.00;;;-3.10
73937;BMP180;59249;59.736;30.568;2023-02-26T09:37:41;99567.00;;;-3.00
73937;BMP180;59249;59.736;30.568;2023-02-26T09:40:21;99571.00;;;-3.10
73937;BMP180;59249;59.736;30.568;2023-02-26T09:43:06;99583.00;;;-3.10
73937;BMP180;59249;59.736;30.568;2023-02-26T09:45:50;99588.00;;;-3.30
73937;BMP180;59249;59.736;30.568;2023-02-26T09:48:24;99587.00;;;-3.20
73937;BMP180;59249;59.736;30.568;2023-02-26T09:50:56;99579.00;;;-3.30
73937;BMP180;59249;59.736;30.568;2023-02-26T09:53:28;99594.00;;;-3.10
73937;BMP180;59249;59.736;30.568;2023-02-26T09:56:04;99588.00;;;-3.10
73937;BMP180;59249;59.736;30.568;2023-02-26T09:58:37;99591.00;;;-3.30
73937;BMP180;59249;59.736;30.568;2023-02-26T10:01:11;99608.00;;;-3.30
73937;BMP180;59249;59.736;30.568;2023-02-26T10:03:55;99602.00;;;-3.30
73937;BMP180;59249;59.736;30.568;2023-02-26T10:06:33;99601.00;;;-3.20
73937;BMP180;59249;59.736;30.568;2023-02-26T10:09:19;99585.00;;;-3.20
73937;BMP180;59249;59.736;30.568;2023-02-26T10:12:02;99645.00;;;-3.10
73937;BMP180;59249;59.736;30.568;2023-02-26T10:14:46;99596.00;;;-3.20
73937;BMP180;59249;59.736;30.568;2023-02-26T10:17:22;99614.00;;;-3.20
73937;BMP180;59249;59.736;30.568;2023-02-26T10:20:00;99608.00;;;-3.00
73937;BMP180;59249;59.736;30.568;2023-02-26T10:22:36;99620.00;;;-3.10
73937;BMP180;59249;59.736;30.568;2023-02-26T10:25:14;99617.00;;;-2.90
73937;BMP180;59249;59.736;30.568;2023-02-26T10:27:54;99627.00;;;-2.90
73937;BMP180;59249;59.736;30.568;2023-02-26T10:30:31;99617.00;;;-2.90
73937;BMP180;59249;59.736;30.568;2023-02-26T10:33:15;99622.00;;;-2.90
73937;BMP180;59249;59.736;30.568;2023-02-26T10:35:51;99627.00;;;-2.80
73937;BMP180;59249;59.736;30.568;2023-02-26T10:38:29;99629.00;;;-3.20
73937;BMP180;59249;59.736;30.568;2023-02-26T10:41:05;99639.00;;;-3.30
73937;BMP180;59249;59.736;30.568;2023-02-26T10:43:41;99631.00;;;-3.20
73937;BMP180;59249;59.736;30.568;2023-02-26T10:46:21;99633.00;;;-3.00
73937;BMP180;59249;59.736;30.568;2023-02-26T10:49:17;99644.00;;;-3.40
73937;BMP180;59249;59.736;30.568;2023-02-26T10:52:13;99658.00;;;-3.20
73937;BMP180;59249;59.736;30.568;2023-02-26T10:54:50;99648.00;;;-3.20
73937;BMP180;59249;59.736;30.568;2023-02-26T10:57:49;99645.00;;;-3.00
73937;BMP180;59249;59.736;30.568;2023-02-26T11:00:23;99651.00;;;-3.10
73937;BMP180;59249;59.736;30.568;2023-02-26T11:02:53;99661.00;;;-3.20
73937;BMP180;59249;59.736;30.568;2023-02-26T11:05:26;99662.00;;;-3.30
73937;BMP180;59249;59.736;30.568;2023-02-26T11:08:00;99659.00;;;-3.10
73937;BMP180;59249;59.736;30.568;2023-02-26T11:10:39;99677.00;;;-3.20
73937;BMP180;59249;59.736;30.568;2023-02-26T11:13:11;99655.00;;;-2.80
73937;BMP180;59249;59.736;30.568;2023-02-26T11:15:41;99681.00;;;-3.20
73937;BMP180;59249;59.736;30.568;2023-02-26T11:18:14;99665.00;;;-2.80
73937;BMP180;59249;59.736;30.568;2023-02-26T11:20:48;99675.00;;;-3.10
73937;BMP180;59249;59.736;30.568;2023-02-26T11:23:25;99676.00;;;-2.80
73937;BMP180;59249;59.736;30.568;2023-02-26T11:26:00;99685.00;;;-2.90
73937;BMP180;59249;59.736;30.568;2023-02-26T11:28:35;99693.00;;;-2.80
73937;BMP180;59249;59.736;30.568;2023-02-26T11:31:11;99681.00;;;-3.10
73937;BMP180;59249;59.736;30.568;2023-02-26T11:33:48;99693.00;;;-3.00
73937;BMP180;59249;59.736;30.568;2023-02-26T11:36:20;99740.00;;;-2.90
73937;BMP180;59249;59.736;30.568;2023-02-26T11:38:55;99708.00;;;-2.80
73937;BMP180;59249;59.736;30.568;2023-02-26T11:41:27;99716.00;;;-3.10
73937;BMP180;59249;59.736;30.568;2023-02-26T11:44:00;99710.00;;;-2.70
73937;BMP180;59249;59.736;30.568;2023-02-26T11:46:37;99723.00;;;-3.00
73937;BMP180;59249;59.736;30.568;2023-02-26T11:49:13;99707.00;;;-3.20
73937;BMP180;59249;59.736;30.568;2023-02-26T11:51:47;99724.00;;;-3.00
73937;BMP180;59249;59.736;30.568;2023-02-26T11:54:30;99715.00;;;-2.90
73937;BMP180;59249;59.736;30.568;2023-02-26T11:57:05;99735.00;;;-3.00
73937;BMP180;59249;59.736;30.568;2023-02-26T11:59:40;99713.00;;;-2.90
73937;BMP180;59249;59.736;30.568;2023-02-26T12:02:11;99745.00;;;-2.90
73937;BMP180;59249;59.736;30.568;2023-02-26T12:04:43;99727.00;;;-3.00
73937;BMP180;59249;59.736;30.568;2023-02-26T12:07:15;99752.00;;;-3.00
73937;BMP180;59249;59.736;30.568;2023-02-26T12:09:46;99744.00;;;-2.80
73937;BMP180;59249;59.736;30.568;2023-02-26T12:12:24;99755.00;;;-2.80
73937;BMP180;59249;59.736;30.568;2023-02-26T12:15:08;99743.00;;;-2.60
73937;BMP180;59249;59.736;30.568;2023-02-26T12:17:54;99769.00;;;-3.00
73937;BMP180;59249;59.736;30.568;2023-02-26T12:20:47;99756.00;;;-3.10
73937;BMP180;59249;59.736;30.568;2023-02-26T12:23:41;99765.00;;;-2.90
73937;BMP180;59249;59.736;30.568;2023-02-26T12:26:27;99764.00;;;-2.90
73937;BMP180;59249;59.736;30.568;2023-02-26T12:29:21;99764.00;;;-3.10
73937;BMP180;59249;59.736;30.568;2023-02-26T12:32:16;99772.00;;;-3.20
73937;BMP180;59249;59.736;30.568;2023-02-26T12:35:21;99778.00;;;-3.00
73937;BMP180;59249;59.736;30.568;2023-02-26T12:38:18;99783.00;;;-3.00
73937;BMP180;59249;59.736;30.568;2023-02-26T12:41:30;99776.00;;;-2.70
73937;BMP180;59249;59.736;30.568;2023-02-26T12:44:22;99779.00;;;-2.90
73937;BMP180;59249;59.736;30.568;2023-02-26T12:47:14;99794.00;;;-2.90
73937;BMP180;59249;59.736;30.568;2023-02-26T12:50:15;99788.00;;;-3.10
73937;BMP180;59249;59.736;30.568;2023-02-26T12:53:18;99821.00;;;-2.70
73937;BMP180;59249;59.736;30.568;2023-02-26T12:56:08;99802.00;;;-3.00
73937;BMP180;59249;59.736;30.568;2023-02-26T12:59:10;99805.00;;;-2.90
73937;BMP180;59249;59.736;30.568;2023-02-26T13:02:09;99813.00;;;-3.00
73937;BMP180;59249;59.736;30.568;2023-02-26T13:05:01;99821.00;;;-3.10
73937;BMP180;59249;59.736;30.568;2023-02-26T13:08:03;99836.00;;;-2.90
73937;BMP180;59249;59.736;30.568;2023-02-26T13:10:56;99850.00;;;-2.90
73937;BMP180;59249;59.736;30.568;2023-02-26T13:13:54;99844.00;;;-3.10
73937;BMP180;59249;59.736;30.568;2023-02-26T13:16:41;99851.00;;;-3.10
73937;BMP180;59249;59.736;30.568;2023-02-26T13:19:27;99846.00;;;-2.80
73937;BMP180;59249;59.736;30.568;2023-02-26T13:22:07;99870.00;;;-2.90
73937;BMP180;59249;59.736;30.568;2023-02-26T13:24:51;99849.00;;;-3.00
73937;BMP180;59249;59.736;30.568;2023-02-26T13:27:26;99870.00;;;-3.20
73937;BMP180;59249;59.736;30.568;2023-02-26T13:30:13;99889.00;;;-3.00
73937;BMP180;59249;59.736;30.568;2023-02-26T13:32:49;99904.00;;;-2.90
73937;BMP180;59249;59.736;30.568;2023-02-26T13:35:46;99900.00;;;-3.00
73937;BMP180;59249;59.736;30.568;2023-02-26T13:38:23;99888.00;;;-3.00
73937;BMP180;59249;59.736;30.568;2023-02-26T13:41:09;99892.00;;;-3.40
73937;BMP180;59249;59.736;30.568;2023-02-26T13:44:25;99892.00;;;-3.50
73937;BMP180;59249;59.736;30.568;2023-02-26T13:47:27;99915.00;;;-3.40
73937;BMP180;59249;59.736;30.568;2023-02-26T13:50:36;99901.00;;;-3.30
73937;BMP180;59249;59.736;30.568;2023-02-26T13:53:33;99913.00;;;-3.40
73937;BMP180;59249;59.736;30.568;2023-02-26T13:56:16;99914.00;;;-3.20
73937;BMP180;59249;59.736;30.568;2023-02-26T13:59:04;99918.00;;;-3.40
73937;BMP180;59249;59.736;30.568;2023-02-26T14:01:55;99929.00;;;-3.40
73937;BMP180;59249;59.736;30.568;2023-02-26T14:04:31;99934.00;;;-3.30
73937;BMP180;59249;59.736;30.568;2023-02-26T14:07:46;99930.00;;;-3.20
73937;BMP180;59249;59.736;30.568;2023-02-26T14:10:24;99934.00;;;-3.20
73937;BMP180;59249;59.736;30.568;2023-02-26T14:13:06;99953.00;;;-3.30
73937;BMP180;59249;59.736;30.568;2023-02-26T14:15:41;99960.00;;;-3.30
73937;BMP180;59249;59.736;30.568;2023-02-26T14:18:26;99946.00;;;-3.40
73937;BMP180;59249;59.736;30.568;2023-02-26T14:24:30;99979.00;;;-3.20
73937;BMP180;59249;59.736;30.568;2023-02-26T14:30:04;99984.00;;;-3.30
73937;BMP180;59249;59.736;30.568;2023-02-26T14:32:52;99978.00;;;-3.50
73937;BMP180;59249;59.736;30.568;2023-02-26T14:35:31;99982.00;;;-3.40
73937;BMP180;59249;59.736;30.568;2023-02-26T14:38:05;99993.00;;;-3.50
73937;BMP180;59249;59.736;30.568;2023-02-26T14:40:44;100003.00;;;-3.60
73937;BMP180;59249;59.736;30.568;2023-02-26T14:43:30;99999.00;;;-3.60
73937;BMP180;59249;59.736;30.568;2023-02-26T14:46:08;100006.00;;;-3.50
73937;BMP180;59249;59.736;30.568;2023-02-26T14:48:38;100000.00;;;-3.60
73937;BMP180;59249;59.736;30.568;2023-02-26T14:51:17;100018.00;;;-3.70
73937;BMP180;59249;59.736;30.568;2023-02-26T14:54:05;100013.00;;;-3.60